Dickinson's Hourly Summary for Tuesday, July 10, 2018
Hour Temp
(f)
RH
(%)
Solar Rad.
(MJ/m2)
Rainfall
(in)
Wind
(mph)
7/10/2018 12:00 AM 78 93 0 0 0
7/10/2018 1:00 AM 77 95 0 0 0
7/10/2018 2:00 AM 76 96 0 0 0.07
7/10/2018 3:00 AM 76 96 0 0 0
7/10/2018 4:00 AM 75 97 0 0 0
7/10/2018 5:00 AM 75 97 0 0 0
7/10/2018 6:00 AM 74 97 0 0 0
7/10/2018 7:00 AM 74 97 0.03 0 0
7/10/2018 8:00 AM 76 90 0.32 0 0
7/10/2018 9:00 AM 82 71 1.06 0 0
7/10/2018 10:00 AM 84 67 1.49 0 1.06
7/10/2018 11:00 AM 86 61 1.92 0 1.16
7/10/2018 12:00 PM 87 59 2.37 0 2.25
7/10/2018 1:00 PM 87 63 2.75 0 3.74
7/10/2018 2:00 PM 83 63 1.06 0 4.94
7/10/2018 3:00 PM 85 64 2.03 0 2.39
7/10/2018 4:00 PM 87 60 1.91 0 3.46
7/10/2018 5:00 PM 88 58 2.31 0 4.68
7/10/2018 6:00 PM 88 58 1.62 0 4.58
7/10/2018 7:00 PM 87 59 1.03 0 4.98
7/10/2018 8:00 PM 85 62 0.41 0 4.1
7/10/2018 9:00 PM 82 72 0.03 0 1.93
7/10/2018 10:00 PM 80 78 0 0 0.17
7/10/2018 11:00 PM 79 83 0 0 0
Data Summary 81 76 20.34 0.00 1.65